sensor_id;sensor_type;location;lat;lon;timestamp;P1;durP1;ratioP1;P2;durP2;ratioP2
30571;SDS011;17348;50.948;10.696;2023-07-24T00:02:13;2.72;;;1.55;;
30571;SDS011;17348;50.948;10.696;2023-07-24T00:05:17;3.40;;;1.48;;
30571;SDS011;17348;50.948;10.696;2023-07-24T00:08:22;3.60;;;1.60;;
30571;SDS011;17348;50.948;10.696;2023-07-24T00:11:24;2.15;;;1.50;;
30571;SDS011;17348;50.948;10.696;2023-07-24T00:14:26;3.00;;;1.40;;
30571;SDS011;17348;50.948;10.696;2023-07-24T00:17:29;2.97;;;1.33;;
30571;SDS011;17348;50.948;10.696;2023-07-24T00:20:32;5.70;;;1.50;;
30571;SDS011;17348;50.948;10.696;2023-07-24T00:23:34;2.85;;;1.27;;
30571;SDS011;17348;50.948;10.696;2023-07-24T00:26:37;3.33;;;1.33;;
30571;SDS011;17348;50.948;10.696;2023-07-24T00:29:39;5.70;;;1.35;;
30571;SDS011;17348;50.948;10.696;2023-07-24T00:32:41;2.33;;;1.42;;
30571;SDS011;17348;50.948;10.696;2023-07-24T00:35:45;3.50;;;1.77;;
30571;SDS011;17348;50.948;10.696;2023-07-24T00:38:47;2.53;;;1.50;;
30571;SDS011;17348;50.948;10.696;2023-07-24T00:41:50;2.97;;;1.52;;
30571;SDS011;17348;50.948;10.696;2023-07-24T00:44:52;4.40;;;1.58;;
30571;SDS011;17348;50.948;10.696;2023-07-24T00:47:54;3.17;;;1.83;;
30571;SDS011;17348;50.948;10.696;2023-07-24T00:50:58;2.28;;;1.23;;
30571;SDS011;17348;50.948;10.696;2023-07-24T00:54:02;3.25;;;1.20;;
30571;SDS011;17348;50.948;10.696;2023-07-24T00:57:05;4.55;;;1.42;;
30571;SDS011;17348;50.948;10.696;2023-07-24T01:00:08;2.63;;;1.45;;
30571;SDS011;17348;50.948;10.696;2023-07-24T01:03:11;2.13;;;1.50;;
30571;SDS011;17348;50.948;10.696;2023-07-24T01:06:15;3.05;;;1.38;;
30571;SDS011;17348;50.948;10.696;2023-07-24T01:09:17;2.47;;;1.48;;
30571;SDS011;17348;50.948;10.696;2023-07-24T01:12:22;3.85;;;1.85;;
30571;SDS011;17348;50.948;10.696;2023-07-24T01:15:31;3.45;;;1.73;;
30571;SDS011;17348;50.948;10.696;2023-07-24T01:18:35;4.95;;;1.65;;
30571;SDS011;17348;50.948;10.696;2023-07-24T01:21:44;2.17;;;1.15;;
30571;SDS011;17348;50.948;10.696;2023-07-24T01:25:00;2.08;;;1.33;;
30571;SDS011;17348;50.948;10.696;2023-07-24T01:28:11;5.63;;;2.20;;
30571;SDS011;17348;50.948;10.696;2023-07-24T01:31:14;3.17;;;1.40;;
30571;SDS011;17348;50.948;10.696;2023-07-24T01:34:17;4.65;;;1.80;;
30571;SDS011;17348;50.948;10.696;2023-07-24T01:37:20;3.15;;;1.75;;
30571;SDS011;17348;50.948;10.696;2023-07-24T01:40:23;3.92;;;1.88;;
30571;SDS011;17348;50.948;10.696;2023-07-24T01:43:27;5.68;;;1.77;;
30571;SDS011;17348;50.948;10.696;2023-07-24T01:46:31;3.58;;;1.70;;
30571;SDS011;17348;50.948;10.696;2023-07-24T01:49:33;6.45;;;2.30;;
30571;SDS011;17348;50.948;10.696;2023-07-24T01:52:35;3.38;;;1.90;;
30571;SDS011;17348;50.948;10.696;2023-07-24T01:55:37;8.43;;;1.90;;
30571;SDS011;17348;50.948;10.696;2023-07-24T01:58:41;2.38;;;1.60;;
30571;SDS011;17348;50.948;10.696;2023-07-24T02:01:43;3.67;;;2.17;;
30571;SDS011;17348;50.948;10.696;2023-07-24T02:04:46;3.75;;;1.98;;
30571;SDS011;17348;50.948;10.696;2023-07-24T02:07:48;3.67;;;1.85;;
30571;SDS011;17348;50.948;10.696;2023-07-24T02:10:50;5.32;;;1.85;;
30571;SDS011;17348;50.948;10.696;2023-07-24T02:13:54;4.40;;;1.90;;
30571;SDS011;17348;50.948;10.696;2023-07-24T02:16:56;2.83;;;1.63;;
30571;SDS011;17348;50.948;10.696;2023-07-24T02:19:59;3.05;;;1.77;;
30571;SDS011;17348;50.948;10.696;2023-07-24T02:23:01;3.55;;;2.05;;
30571;SDS011;17348;50.948;10.696;2023-07-24T02:26:03;5.53;;;1.80;;
30571;SDS011;17348;50.948;10.696;2023-07-24T02:29:07;3.58;;;1.75;;
30571;SDS011;17348;50.948;10.696;2023-07-24T02:32:09;2.67;;;1.80;;
30571;SDS011;17348;50.948;10.696;2023-07-24T02:35:11;3.17;;;1.85;;
30571;SDS011;17348;50.948;10.696;2023-07-24T02:38:14;3.00;;;2.20;;
30571;SDS011;17348;50.948;10.696;2023-07-24T02:41:16;5.25;;;2.05;;
30571;SDS011;17348;50.948;10.696;2023-07-24T02:44:20;3.15;;;1.77;;
30571;SDS011;17348;50.948;10.696;2023-07-24T02:47:22;2.92;;;1.73;;
30571;SDS011;17348;50.948;10.696;2023-07-24T02:50:24;3.88;;;1.92;;
30571;SDS011;17348;50.948;10.696;2023-07-24T02:53:27;3.58;;;1.90;;
30571;SDS011;17348;50.948;10.696;2023-07-24T02:56:29;3.55;;;1.95;;
30571;SDS011;17348;50.948;10.696;2023-07-24T02:59:33;5.13;;;2.45;;
30571;SDS011;17348;50.948;10.696;2023-07-24T03:02:35;3.42;;;1.80;;
30571;SDS011;17348;50.948;10.696;2023-07-24T03:05:38;3.88;;;2.00;;
30571;SDS011;17348;50.948;10.696;2023-07-24T03:08:40;3.58;;;1.80;;
30571;SDS011;17348;50.948;10.696;2023-07-24T03:11:42;3.55;;;2.03;;
30571;SDS011;17348;50.948;10.696;2023-07-24T03:14:46;3.53;;;2.22;;
30571;SDS011;17348;50.948;10.696;2023-07-24T03:17:49;5.75;;;2.17;;
30571;SDS011;17348;50.948;10.696;2023-07-24T03:20:51;3.55;;;2.05;;
30571;SDS011;17348;50.948;10.696;2023-07-24T03:23:53;4.40;;;2.30;;
30571;SDS011;17348;50.948;10.696;2023-07-24T03:26:56;3.83;;;1.70;;
30571;SDS011;17348;50.948;10.696;2023-07-24T03:29:59;5.60;;;2.03;;
30571;SDS011;17348;50.948;10.696;2023-07-24T03:33:02;5.90;;;2.30;;
30571;SDS011;17348;50.948;10.696;2023-07-24T03:36:04;3.33;;;2.15;;
30571;SDS011;17348;50.948;10.696;2023-07-24T03:39:06;4.63;;;2.05;;
30571;SDS011;17348;50.948;10.696;2023-07-24T03:42:10;3.28;;;1.92;;
30571;SDS011;17348;50.948;10.696;2023-07-24T03:45:15;4.32;;;2.42;;
30571;SDS011;17348;50.948;10.696;2023-07-24T03:48:19;4.88;;;2.20;;
30571;SDS011;17348;50.948;10.696;2023-07-24T03:51:21;7.25;;;2.42;;
30571;SDS011;17348;50.948;10.696;2023-07-24T03:54:23;3.47;;;2.15;;
30571;SDS011;17348;50.948;10.696;2023-07-24T03:57:26;5.20;;;2.17;;
30571;SDS011;17348;50.948;10.696;2023-07-24T04:00:29;9.38;;;3.05;;
30571;SDS011;17348;50.948;10.696;2023-07-24T04:03:32;6.82;;;2.70;;
30571;SDS011;17348;50.948;10.696;2023-07-24T04:06:34;4.85;;;2.45;;
30571;SDS011;17348;50.948;10.696;2023-07-24T04:09:36;7.07;;;2.25;;
30571;SDS011;17348;50.948;10.696;2023-07-24T04:12:39;4.70;;;2.35;;
30571;SDS011;17348;50.948;10.696;2023-07-24T04:15:42;3.95;;;2.28;;
30571;SDS011;17348;50.948;10.696;2023-07-24T04:18:45;4.05;;;2.10;;
30571;SDS011;17348;50.948;10.696;2023-07-24T04:21:47;3.85;;;2.17;;
30571;SDS011;17348;50.948;10.696;2023-07-24T04:24:50;6.13;;;2.90;;
30571;SDS011;17348;50.948;10.696;2023-07-24T04:27:52;5.18;;;2.60;;
30571;SDS011;17348;50.948;10.696;2023-07-24T04:30:59;7.18;;;2.45;;
30571;SDS011;17348;50.948;10.696;2023-07-24T04:34:01;4.57;;;2.33;;
30571;SDS011;17348;50.948;10.696;2023-07-24T04:37:04;8.48;;;2.70;;
30571;SDS011;17348;50.948;10.696;2023-07-24T04:40:06;5.15;;;2.78;;
30571;SDS011;17348;50.948;10.696;2023-07-24T04:43:09;3.88;;;2.15;;
30571;SDS011;17348;50.948;10.696;2023-07-24T04:46:13;3.50;;;2.00;;
30571;SDS011;17348;50.948;10.696;2023-07-24T04:49:15;6.75;;;3.05;;
30571;SDS011;17348;50.948;10.696;2023-07-24T04:52:18;4.88;;;2.25;;
30571;SDS011;17348;50.948;10.696;2023-07-24T04:55:20;4.93;;;2.50;;
30571;SDS011;17348;50.948;10.696;2023-07-24T04:58:22;6.57;;;2.40;;
30571;SDS011;17348;50.948;10.696;2023-07-24T05:01:26;4.03;;;2.28;;
30571;SDS011;17348;50.948;10.696;2023-07-24T05:04:28;4.38;;;2.42;;
30571;SDS011;17348;50.948;10.696;2023-07-24T05:07:31;3.15;;;2.00;;
30571;SDS011;17348;50.948;10.696;2023-07-24T05:10:34;6.22;;;2.63;;
30571;SDS011;17348;50.948;10.696;2023-07-24T05:13:36;4.05;;;2.38;;
30571;SDS011;17348;50.948;10.696;2023-07-24T05:16:40;4.35;;;2.33;;
30571;SDS011;17348;50.948;10.696;2023-07-24T05:19:42;4.40;;;2.42;;
30571;SDS011;17348;50.948;10.696;2023-07-24T05:22:45;4.78;;;2.25;;
30571;SDS011;17348;50.948;10.696;2023-07-24T05:25:47;5.60;;;2.53;;
30571;SDS011;17348;50.948;10.696;2023-07-24T05:28:57;5.32;;;2.40;;
30571;SDS011;17348;50.948;10.696;2023-07-24T05:32:01;5.32;;;2.45;;
30571;SDS011;17348;50.948;10.696;2023-07-24T05:35:03;4.30;;;2.45;;
30571;SDS011;17348;50.948;10.696;2023-07-24T05:38:06;5.78;;;2.75;;
30571;SDS011;17348;50.948;10.696;2023-07-24T05:41:08;6.72;;;2.60;;
30571;SDS011;17348;50.948;10.696;2023-07-24T05:44:11;5.45;;;2.28;;
30571;SDS011;17348;50.948;10.696;2023-07-24T05:47:14;10.05;;;3.20;;
30571;SDS011;17348;50.948;10.696;2023-07-24T05:50:17;4.57;;;2.75;;
30571;SDS011;17348;50.948;10.696;2023-07-24T05:53:19;7.82;;;3.00;;
30571;SDS011;17348;50.948;10.696;2023-07-24T05:56:21;4.45;;;2.55;;
30571;SDS011;17348;50.948;10.696;2023-07-24T05:59:24;7.40;;;2.78;;
30571;SDS011;17348;50.948;10.696;2023-07-24T06:02:27;5.30;;;2.78;;
30571;SDS011;17348;50.948;10.696;2023-07-24T06:05:30;7.68;;;2.65;;
30571;SDS011;17348;50.948;10.696;2023-07-24T06:08:32;9.02;;;2.97;;
30571;SDS011;17348;50.948;10.696;2023-07-24T06:11:34;5.15;;;2.95;;
30571;SDS011;17348;50.948;10.696;2023-07-24T06:14:36;4.93;;;2.58;;
30571;SDS011;17348;50.948;10.696;2023-07-24T06:17:40;6.80;;;2.67;;
30571;SDS011;17348;50.948;10.696;2023-07-24T06:20:42;6.03;;;2.83;;
30571;SDS011;17348;50.948;10.696;2023-07-24T06:23:45;6.03;;;2.85;;
30571;SDS011;17348;50.948;10.696;2023-07-24T06:26:47;5.38;;;2.88;;
30571;SDS011;17348;50.948;10.696;2023-07-24T06:29:49;7.75;;;3.20;;
30571;SDS011;17348;50.948;10.696;2023-07-24T06:32:53;4.70;;;2.72;;
30571;SDS011;17348;50.948;10.696;2023-07-24T06:35:55;5.82;;;2.88;;
30571;SDS011;17348;50.948;10.696;2023-07-24T06:38:58;4.32;;;2.45;;
30571;SDS011;17348;50.948;10.696;2023-07-24T06:42:00;5.22;;;2.72;;
30571;SDS011;17348;50.948;10.696;2023-07-24T06:45:03;7.63;;;2.83;;
30571;SDS011;17348;50.948;10.696;2023-07-24T06:48:07;6.15;;;3.33;;
30571;SDS011;17348;50.948;10.696;2023-07-24T06:51:09;8.55;;;2.80;;
30571;SDS011;17348;50.948;10.696;2023-07-24T06:54:12;5.65;;;2.72;;
30571;SDS011;17348;50.948;10.696;2023-07-24T06:57:14;5.63;;;3.00;;
30571;SDS011;17348;50.948;10.696;2023-07-24T07:00:16;5.82;;;2.53;;
30571;SDS011;17348;50.948;10.696;2023-07-24T07:03:21;9.77;;;3.13;;
30571;SDS011;17348;50.948;10.696;2023-07-24T07:06:23;7.25;;;3.00;;
30571;SDS011;17348;50.948;10.696;2023-07-24T07:09:25;7.22;;;3.03;;
30571;SDS011;17348;50.948;10.696;2023-07-24T07:12:28;3.97;;;2.38;;
30571;SDS011;17348;50.948;10.696;2023-07-24T07:15:30;6.47;;;3.50;;
30571;SDS011;17348;50.948;10.696;2023-07-24T07:18:34;7.60;;;2.95;;
30571;SDS011;17348;50.948;10.696;2023-07-24T07:21:36;5.57;;;3.17;;
30571;SDS011;17348;50.948;10.696;2023-07-24T07:24:38;8.90;;;3.05;;
30571;SDS011;17348;50.948;10.696;2023-07-24T07:27:40;6.18;;;2.78;;
30571;SDS011;17348;50.948;10.696;2023-07-24T07:30:43;7.47;;;2.80;;
30571;SDS011;17348;50.948;10.696;2023-07-24T07:33:46;7.25;;;3.00;;
30571;SDS011;17348;50.948;10.696;2023-07-24T07:36:49;5.15;;;2.92;;
30571;SDS011;17348;50.948;10.696;2023-07-24T07:39:51;9.07;;;3.10;;
30571;SDS011;17348;50.948;10.696;2023-07-24T07:42:54;9.35;;;3.50;;
30571;SDS011;17348;50.948;10.696;2023-07-24T07:45:56;5.53;;;3.30;;
30571;SDS011;17348;50.948;10.696;2023-07-24T07:49:01;7.32;;;3.35;;
30571;SDS011;17348;50.948;10.696;2023-07-24T07:52:06;7.88;;;3.00;;
30571;SDS011;17348;50.948;10.696;2023-07-24T07:55:14;4.20;;;2.92;;
30571;SDS011;17348;50.948;10.696;2023-07-24T07:58:17;6.38;;;3.10;;
30571;SDS011;17348;50.948;10.696;2023-07-24T08:01:21;5.70;;;2.97;;
30571;SDS011;17348;50.948;10.696;2023-07-24T08:04:29;6.03;;;3.33;;
30571;SDS011;17348;50.948;10.696;2023-07-24T08:07:32;13.48;;;3.38;;
30571;SDS011;17348;50.948;10.696;2023-07-24T08:10:36;5.65;;;3.10;;
30571;SDS011;17348;50.948;10.696;2023-07-24T08:13:39;10.32;;;3.00;;
30571;SDS011;17348;50.948;10.696;2023-07-24T08:16:41;5.47;;;3.03;;
30571;SDS011;17348;50.948;10.696;2023-07-24T08:19:45;11.93;;;3.38;;
30571;SDS011;17348;50.948;10.696;2023-07-24T08:22:47;9.48;;;3.30;;
30571;SDS011;17348;50.948;10.696;2023-07-24T08:25:52;7.07;;;3.72;;
30571;SDS011;17348;50.948;10.696;2023-07-24T08:28:54;7.80;;;3.00;;
30571;SDS011;17348;50.948;10.696;2023-07-24T08:31:57;8.65;;;3.28;;
30571;SDS011;17348;50.948;10.696;2023-07-24T08:35:00;7.63;;;3.30;;
30571;SDS011;17348;50.948;10.696;2023-07-24T08:38:03;5.20;;;2.58;;
30571;SDS011;17348;50.948;10.696;2023-07-24T08:41:05;8.55;;;3.25;;
30571;SDS011;17348;50.948;10.696;2023-07-24T08:44:09;6.20;;;3.10;;
30571;SDS011;17348;50.948;10.696;2023-07-24T08:47:12;4.47;;;2.70;;
30571;SDS011;17348;50.948;10.696;2023-07-24T08:50:18;9.13;;;3.40;;
30571;SDS011;17348;50.948;10.696;2023-07-24T08:53:22;13.27;;;3.40;;
30571;SDS011;17348;50.948;10.696;2023-07-24T08:56:25;5.90;;;2.83;;
30571;SDS011;17348;50.948;10.696;2023-07-24T08:59:27;8.73;;;3.45;;
30571;SDS011;17348;50.948;10.696;2023-07-24T09:02:31;8.65;;;3.33;;
30571;SDS011;17348;50.948;10.696;2023-07-24T09:05:35;5.65;;;2.90;;
30571;SDS011;17348;50.948;10.696;2023-07-24T09:08:37;7.20;;;3.00;;
30571;SDS011;17348;50.948;10.696;2023-07-24T09:11:47;6.85;;;2.85;;
30571;SDS011;17348;50.948;10.696;2023-07-24T09:15:00;9.13;;;3.33;;
30571;SDS011;17348;50.948;10.696;2023-07-24T09:18:03;6.20;;;3.60;;
30571;SDS011;17348;50.948;10.696;2023-07-24T09:21:07;6.75;;;3.35;;
30571;SDS011;17348;50.948;10.696;2023-07-24T09:24:10;9.90;;;3.22;;
30571;SDS011;17348;50.948;10.696;2023-07-24T09:27:14;8.95;;;3.55;;
30571;SDS011;17348;50.948;10.696;2023-07-24T09:30:16;9.82;;;3.83;;
30571;SDS011;17348;50.948;10.696;2023-07-24T09:33:33;7.22;;;3.08;;
30571;SDS011;17348;50.948;10.696;2023-07-24T09:36:38;7.75;;;3.97;;
30571;SDS011;17348;50.948;10.696;2023-07-24T09:39:40;9.90;;;3.35;;
30571;SDS011;17348;50.948;10.696;2023-07-24T09:42:42;7.13;;;3.47;;
30571;SDS011;17348;50.948;10.696;2023-07-24T09:45:45;5.47;;;3.33;;
30571;SDS011;17348;50.948;10.696;2023-07-24T09:48:48;7.68;;;3.85;;
30571;SDS011;17348;50.948;10.696;2023-07-24T09:51:52;7.80;;;3.67;;
30571;SDS011;17348;50.948;10.696;2023-07-24T09:54:59;8.73;;;3.33;;
30571;SDS011;17348;50.948;10.696;2023-07-24T09:58:08;15.18;;;3.75;;
30571;SDS011;17348;50.948;10.696;2023-07-24T10:01:11;6.78;;;2.97;;
30571;SDS011;17348;50.948;10.696;2023-07-24T10:04:14;7.40;;;3.50;;
30571;SDS011;17348;50.948;10.696;2023-07-24T10:07:18;6.05;;;3.45;;
30571;SDS011;17348;50.948;10.696;2023-07-24T10:10:23;7.20;;;4.20;;
30571;SDS011;17348;50.948;10.696;2023-07-24T10:13:27;7.95;;;3.63;;
30571;SDS011;17348;50.948;10.696;2023-07-24T10:16:30;7.20;;;3.60;;
30571;SDS011;17348;50.948;10.696;2023-07-24T10:19:38;6.63;;;3.42;;
30571;SDS011;17348;50.948;10.696;2023-07-24T10:22:44;5.75;;;3.45;;
30571;SDS011;17348;50.948;10.696;2023-07-24T10:25:50;11.02;;;3.97;;
30571;SDS011;17348;50.948;10.696;2023-07-24T10:28:53;7.47;;;3.67;;
30571;SDS011;17348;50.948;10.696;2023-07-24T10:31:56;15.38;;;5.85;;
30571;SDS011;17348;50.948;10.696;2023-07-24T10:34:59;8.82;;;3.65;;
30571;SDS011;17348;50.948;10.696;2023-07-24T10:41:13;8.57;;;3.50;;
30571;SDS011;17348;50.948;10.696;2023-07-24T10:44:31;7.10;;;3.78;;
30571;SDS011;17348;50.948;10.696;2023-07-24T10:47:33;10.52;;;4.28;;
30571;SDS011;17348;50.948;10.696;2023-07-24T10:50:36;10.68;;;3.80;;
30571;SDS011;17348;50.948;10.696;2023-07-24T10:53:41;10.88;;;4.60;;
30571;SDS011;17348;50.948;10.696;2023-07-24T10:56:45;7.15;;;3.80;;
30571;SDS011;17348;50.948;10.696;2023-07-24T10:59:49;15.75;;;4.00;;
30571;SDS011;17348;50.948;10.696;2023-07-24T11:02:52;9.52;;;4.00;;
30571;SDS011;17348;50.948;10.696;2023-07-24T11:05:56;10.52;;;4.80;;
30571;SDS011;17348;50.948;10.696;2023-07-24T11:08:59;7.65;;;3.70;;
30571;SDS011;17348;50.948;10.696;2023-07-24T11:12:08;10.25;;;4.22;;
30571;SDS011;17348;50.948;10.696;2023-07-24T11:15:13;7.20;;;4.20;;
30571;SDS011;17348;50.948;10.696;2023-07-24T11:18:16;6.50;;;3.70;;
30571;SDS011;17348;50.948;10.696;2023-07-24T11:21:21;9.40;;;4.72;;
30571;SDS011;17348;50.948;10.696;2023-07-24T11:24:24;7.28;;;4.10;;
30571;SDS011;17348;50.948;10.696;2023-07-24T11:27:27;6.60;;;3.88;;
30571;SDS011;17348;50.948;10.696;2023-07-24T11:30:31;9.90;;;4.32;;
30571;SDS011;17348;50.948;10.696;2023-07-24T11:33:33;9.38;;;5.22;;
30571;SDS011;17348;50.948;10.696;2023-07-24T11:36:36;10.20;;;3.58;;
30571;SDS011;17348;50.948;10.696;2023-07-24T11:39:38;7.50;;;3.92;;
30571;SDS011;17348;50.948;10.696;2023-07-24T11:42:42;9.18;;;4.82;;
30571;SDS011;17348;50.948;10.696;2023-07-24T11:45:47;8.57;;;4.32;;
30571;SDS011;17348;50.948;10.696;2023-07-24T11:48:52;7.65;;;3.78;;
30571;SDS011;17348;50.948;10.696;2023-07-24T11:52:00;9.10;;;4.43;;
30571;SDS011;17348;50.948;10.696;2023-07-24T11:55:03;7.80;;;4.30;;
30571;SDS011;17348;50.948;10.696;2023-07-24T11:58:06;9.82;;;4.40;;
30571;SDS011;17348;50.948;10.696;2023-07-24T12:01:10;16.98;;;4.28;;
30571;SDS011;17348;50.948;10.696;2023-07-24T12:04:13;8.93;;;4.55;;
30571;SDS011;17348;50.948;10.696;2023-07-24T12:07:16;8.63;;;4.68;;
30571;SDS011;17348;50.948;10.696;2023-07-24T12:10:24;11.80;;;4.88;;
30571;SDS011;17348;50.948;10.696;2023-07-24T12:13:28;11.38;;;4.95;;
30571;SDS011;17348;50.948;10.696;2023-07-24T12:16:34;8.27;;;3.90;;
30571;SDS011;17348;50.948;10.696;2023-07-24T12:19:37;13.70;;;4.68;;
30571;SDS011;17348;50.948;10.696;2023-07-24T12:22:40;8.90;;;4.60;;
30571;SDS011;17348;50.948;10.696;2023-07-24T12:25:42;9.25;;;4.50;;
30571;SDS011;17348;50.948;10.696;2023-07-24T12:28:45;8.70;;;4.43;;
30571;SDS011;17348;50.948;10.696;2023-07-24T12:31:49;8.07;;;4.10;;
30571;SDS011;17348;50.948;10.696;2023-07-24T12:34:51;7.25;;;4.18;;
30571;SDS011;17348;50.948;10.696;2023-07-24T12:37:54;6.45;;;3.70;;
30571;SDS011;17348;50.948;10.696;2023-07-24T12:40:57;11.00;;;4.20;;
30571;SDS011;17348;50.948;10.696;2023-07-24T12:43:59;10.70;;;4.40;;
30571;SDS011;17348;50.948;10.696;2023-07-24T12:47:03;7.88;;;4.65;;
30571;SDS011;17348;50.948;10.696;2023-07-24T12:50:06;7.20;;;4.22;;
30571;SDS011;17348;50.948;10.696;2023-07-24T12:53:08;7.80;;;4.47;;
30571;SDS011;17348;50.948;10.696;2023-07-24T12:56:11;6.63;;;4.03;;
30571;SDS011;17348;50.948;10.696;2023-07-24T12:59:13;10.57;;;5.30;;
30571;SDS011;17348;50.948;10.696;2023-07-24T13:02:17;11.40;;;4.90;;
30571;SDS011;17348;50.948;10.696;2023-07-24T13:05:19;9.82;;;4.70;;
30571;SDS011;17348;50.948;10.696;2023-07-24T13:08:21;9.95;;;5.43;;
30571;SDS011;17348;50.948;10.696;2023-07-24T13:11:24;13.07;;;4.30;;
30571;SDS011;17348;50.948;10.696;2023-07-24T13:14:28;8.18;;;4.18;;
30571;SDS011;17348;50.948;10.696;2023-07-24T13:17:32;9.52;;;4.72;;
30571;SDS011;17348;50.948;10.696;2023-07-24T13:20:34;11.05;;;4.85;;
30571;SDS011;17348;50.948;10.696;2023-07-24T13:23:36;7.93;;;4.22;;
30571;SDS011;17348;50.948;10.696;2023-07-24T13:26:39;13.27;;;5.25;;
30571;SDS011;17348;50.948;10.696;2023-07-24T13:29:41;8.32;;;5.30;;
30571;SDS011;17348;50.948;10.696;2023-07-24T13:32:45;10.02;;;4.95;;
30571;SDS011;17348;50.948;10.696;2023-07-24T13:35:47;10.30;;;4.53;;
30571;SDS011;17348;50.948;10.696;2023-07-24T13:38:49;9.10;;;5.05;;
30571;SDS011;17348;50.948;10.696;2023-07-24T13:41:52;9.48;;;4.68;;
30571;SDS011;17348;50.948;10.696;2023-07-24T13:44:54;8.00;;;4.32;;
30571;SDS011;17348;50.948;10.696;2023-07-24T13:47:58;7.88;;;4.50;;
30571;SDS011;17348;50.948;10.696;2023-07-24T13:51:00;10.05;;;3.70;;
30571;SDS011;17348;50.948;10.696;2023-07-24T13:54:03;11.73;;;4.97;;
30571;SDS011;17348;50.948;10.696;2023-07-24T13:57:06;6.80;;;4.18;;
30571;SDS011;17348;50.948;10.696;2023-07-24T14:00:09;9.55;;;4.47;;
30571;SDS011;17348;50.948;10.696;2023-07-24T14:03:13;7.20;;;3.88;;
30571;SDS011;17348;50.948;10.696;2023-07-24T14:06:16;9.90;;;4.05;;
30571;SDS011;17348;50.948;10.696;2023-07-24T14:09:18;9.27;;;4.32;;
30571;SDS011;17348;50.948;10.696;2023-07-24T14:12:20;8.07;;;4.13;;
30571;SDS011;17348;50.948;10.696;2023-07-24T14:15:23;10.10;;;4.75;;
30571;SDS011;17348;50.948;10.696;2023-07-24T14:18:27;9.30;;;4.28;;
30571;SDS011;17348;50.948;10.696;2023-07-24T14:21:29;8.00;;;3.97;;
30571;SDS011;17348;50.948;10.696;2023-07-24T14:24:31;7.00;;;3.85;;
30571;SDS011;17348;50.948;10.696;2023-07-24T14:27:34;18.20;;;4.82;;
30571;SDS011;17348;50.948;10.696;2023-07-24T14:30:36;7.57;;;3.65;;
30571;SDS011;17348;50.948;10.696;2023-07-24T14:33:40;6.47;;;3.55;;
30571;SDS011;17348;50.948;10.696;2023-07-24T14:36:42;6.45;;;3.55;;
30571;SDS011;17348;50.948;10.696;2023-07-24T14:39:44;6.68;;;3.67;;
30571;SDS011;17348;50.948;10.696;2023-07-24T14:42:47;8.10;;;3.25;;
30571;SDS011;17348;50.948;10.696;2023-07-24T14:45:49;7.00;;;3.30;;
30571;SDS011;17348;50.948;10.696;2023-07-24T14:48:53;14.10;;;3.90;;
30571;SDS011;17348;50.948;10.696;2023-07-24T14:51:55;5.95;;;3.55;;
30571;SDS011;17348;50.948;10.696;2023-07-24T14:54:57;6.47;;;3.97;;
30571;SDS011;17348;50.948;10.696;2023-07-24T14:58:00;5.78;;;3.50;;
30571;SDS011;17348;50.948;10.696;2023-07-24T15:01:02;9.20;;;3.80;;
30571;SDS011;17348;50.948;10.696;2023-07-24T15:04:06;9.07;;;3.90;;
30571;SDS011;17348;50.948;10.696;2023-07-24T15:07:08;8.30;;;4.05;;
30571;SDS011;17348;50.948;10.696;2023-07-24T15:10:10;6.18;;;4.05;;
30571;SDS011;17348;50.948;10.696;2023-07-24T15:13:13;7.93;;;3.67;;
30571;SDS011;17348;50.948;10.696;2023-07-24T15:16:15;9.90;;;4.22;;
30571;SDS011;17348;50.948;10.696;2023-07-24T15:19:19;7.68;;;3.83;;
30571;SDS011;17348;50.948;10.696;2023-07-24T15:22:21;5.80;;;3.78;;
30571;SDS011;17348;50.948;10.696;2023-07-24T15:25:24;7.95;;;3.63;;
30571;SDS011;17348;50.948;10.696;2023-07-24T15:28:26;7.10;;;3.92;;
30571;SDS011;17348;50.948;10.696;2023-07-24T15:31:29;6.50;;;3.65;;
30571;SDS011;17348;50.948;10.696;2023-07-24T15:34:37;5.93;;;3.47;;
30571;SDS011;17348;50.948;10.696;2023-07-24T15:37:39;11.50;;;3.03;;
30571;SDS011;17348;50.948;10.696;2023-07-24T15:40:42;8.00;;;3.78;;
30571;SDS011;17348;50.948;10.696;2023-07-24T15:43:44;7.53;;;3.80;;
30571;SDS011;17348;50.948;10.696;2023-07-24T15:46:46;16.17;;;2.63;;
30571;SDS011;17348;50.948;10.696;2023-07-24T15:49:50;15.90;;;1.90;;
30571;SDS011;17348;50.948;10.696;2023-07-24T15:52:52;14.10;;;1.95;;
30571;SDS011;17348;50.948;10.696;2023-07-24T15:55:55;12.70;;;2.83;;
30571;SDS011;17348;50.948;10.696;2023-07-24T15:58:57;13.80;;;2.35;;
30571;SDS011;17348;50.948;10.696;2023-07-24T16:01:59;6.40;;;2.15;;
30571;SDS011;17348;50.948;10.696;2023-07-24T16:05:04;8.82;;;1.67;;
30571;SDS011;17348;50.948;10.696;2023-07-24T16:08:07;8.02;;;1.92;;
30571;SDS011;17348;50.948;10.696;2023-07-24T16:11:10;4.82;;;1.60;;
30571;SDS011;17348;50.948;10.696;2023-07-24T16:14:12;3.60;;;1.48;;
30571;SDS011;17348;50.948;10.696;2023-07-24T16:17:15;3.95;;;1.73;;
30571;SDS011;17348;50.948;10.696;2023-07-24T16:20:18;2.60;;;1.20;;
30571;SDS011;17348;50.948;10.696;2023-07-24T16:23:21;7.45;;;1.40;;
30571;SDS011;17348;50.948;10.696;2023-07-24T16:26:24;5.18;;;1.75;;
30571;SDS011;17348;50.948;10.696;2023-07-24T16:29:26;12.05;;;2.08;;
30571;SDS011;17348;50.948;10.696;2023-07-24T16:32:29;10.57;;;1.85;;
30571;SDS011;17348;50.948;10.696;2023-07-24T16:35:32;6.50;;;1.55;;
30571;SDS011;17348;50.948;10.696;2023-07-24T16:38:35;8.18;;;1.83;;
30571;SDS011;17348;50.948;10.696;2023-07-24T16:41:37;12.48;;;1.98;;
30571;SDS011;17348;50.948;10.696;2023-07-24T16:44:39;6.10;;;2.28;;
30571;SDS011;17348;50.948;10.696;2023-07-24T16:47:42;7.45;;;2.22;;
30571;SDS011;17348;50.948;10.696;2023-07-24T16:50:45;4.90;;;2.10;;
30571;SDS011;17348;50.948;10.696;2023-07-24T16:53:48;4.13;;;1.70;;
30571;SDS011;17348;50.948;10.696;2023-07-24T16:56:50;8.07;;;1.83;;
30571;SDS011;17348;50.948;10.696;2023-07-24T16:59:53;6.80;;;1.80;;
30571;SDS011;17348;50.948;10.696;2023-07-24T17:02:55;5.22;;;1.80;;
30571;SDS011;17348;50.948;10.696;2023-07-24T17:05:59;7.03;;;2.00;;
30571;SDS011;17348;50.948;10.696;2023-07-24T17:09:01;5.65;;;2.20;;
30571;SDS011;17348;50.948;10.696;2023-07-24T17:12:04;5.03;;;1.88;;
30571;SDS011;17348;50.948;10.696;2023-07-24T17:15:07;7.18;;;2.15;;
30571;SDS011;17348;50.948;10.696;2023-07-24T17:18:10;6.00;;;2.03;;
30571;SDS011;17348;50.948;10.696;2023-07-24T17:21:14;6.70;;;2.25;;
30571;SDS011;17348;50.948;10.696;2023-07-24T17:24:16;3.40;;;1.98;;
30571;SDS011;17348;50.948;10.696;2023-07-24T17:27:19;8.07;;;2.08;;
30571;SDS011;17348;50.948;10.696;2023-07-24T17:30:22;7.38;;;2.25;;
30571;SDS011;17348;50.948;10.696;2023-07-24T17:33:24;13.10;;;2.22;;
30571;SDS011;17348;50.948;10.696;2023-07-24T17:36:28;6.20;;;2.05;;
30571;SDS011;17348;50.948;10.696;2023-07-24T17:39:30;4.05;;;2.33;;
30571;SDS011;17348;50.948;10.696;2023-07-24T17:42:33;6.20;;;2.05;;
30571;SDS011;17348;50.948;10.696;2023-07-24T17:45:35;3.63;;;2.25;;
30571;SDS011;17348;50.948;10.696;2023-07-24T17:48:37;4.20;;;2.13;;
30571;SDS011;17348;50.948;10.696;2023-07-24T17:51:41;5.35;;;2.30;;
30571;SDS011;17348;50.948;10.696;2023-07-24T17:54:43;9.60;;;2.45;;
30571;SDS011;17348;50.948;10.696;2023-07-24T17:57:47;4.85;;;2.50;;
30571;SDS011;17348;50.948;10.696;2023-07-24T18:00:52;4.13;;;2.33;;
30571;SDS011;17348;50.948;10.696;2023-07-24T18:03:54;6.13;;;2.03;;
30571;SDS011;17348;50.948;10.696;2023-07-24T18:06:58;5.65;;;2.22;;
30571;SDS011;17348;50.948;10.696;2023-07-24T18:10:00;4.07;;;2.00;;